Погода Санкт-Файт-ан-дер-Гланна неделю

Каринтия, Австрия

24 - 30 июля
  • 24июля
    Сегодня
    +15°
    +26°
    Небольшая облачность, возможен дождь с грозой
    ВремяПогодаТемператураВлажностьДавлениеВетер, м/сВероятность осадков
    02:00Ясно и безоблачно+17°C97 %722 мм1.3 м/с6 %
    05:00Практически безоблачно+16°C91 %722 мм1.6 м/с10 %
    08:00Облачно с прояснениями+18°C81 %722 мм1.6 м/с19 %
    11:00Облачно с прояснениями+22°C64 %722 мм1.5 м/с41 %
    14:00Небольшая облачность, возможен дождь с грозой+23°C67 %722 мм1.7 м/с35 %
    17:00Практически безоблачно+26°C66 %722 мм2.9 м/с20 %
    20:00Ясно и безоблачно+24°C67 %721 мм3.2 м/с5 %
    23:00Ясно и безоблачно+19°C60 %722 мм2.3 м/с2 %
  • 25июля
    Четверг
    +15°
    +27°
    Ясно и безоблачно
    ВремяПогодаТемператураВлажностьДавлениеВетер, м/сВероятность осадков
    02:00Ясно и безоблачно+17°C78 %722 мм1.5 м/с3 %
    05:00Ясно и безоблачно+16°C86 %722 мм1.7 м/с2 %
    08:00Ясно и безоблачно+17°C79 %722 мм1.5 м/с1 %
    11:00Практически безоблачно+22°C55 %722 мм1.6 м/с18 %
    14:00Ясно и безоблачно+25°C43 %721 мм2.3 м/с19 %
    17:00Ясно и безоблачно+27°C45 %720 мм3.5 м/с6 %
    20:00Облачно с прояснениями+24°C66 %720 мм3.3 м/с2 %
    23:00Облачно с прояснениями+19°C86 %721 мм2.1 м/с2 %
  • 26июля
    Пятница
    +17°
    +29°
    Ясно и безоблачно
    ВремяПогодаТемператураВлажностьДавлениеВетер, м/сВероятность осадков
    02:00Облачно с прояснениями+18°C94 %721 мм1.4 м/с2 %
    05:00Небольшая облачность+16°C90 %721 мм1.6 м/с2 %
    08:00Ясно и безоблачно+18°C75 %721 мм1.4 м/с2 %
    11:00Ясно и безоблачно+23°C58 %722 мм1.4 м/с2 %
    14:00Ясно и безоблачно+27°C51 %722 мм2.0 м/с2 %
    17:00Ясно и безоблачно+29°C48 %721 мм3.2 м/с3 %
    20:00Ясно и безоблачно+26°C69 %721 мм3.2 м/с2 %
    23:00Ясно и безоблачно+21°C79 %722 мм2.0 м/с2 %
  • 27июля
    Суббота
    +17°
    +31°
    Ясно и безоблачно
    ВремяПогодаТемператураВлажностьДавлениеВетер, м/сВероятность осадков
    02:00Ясно и безоблачно+19°C87 %722 мм1.3 м/с2 %
    05:00Ясно и безоблачно+18°C92 %722 мм1.5 м/с2 %
    08:00Ясно и безоблачно+20°C80 %723 мм1.3 м/с2 %
    11:00Ясно и безоблачно+26°C59 %724 мм1.5 м/с2 %
    14:00Ясно и безоблачно+29°C50 %724 мм2.2 м/с2 %
    17:00Ясно и безоблачно+31°C48 %723 мм3.6 м/с7 %
    20:00Ясно и безоблачно+28°C71 %723 мм3.3 м/с2 %
    23:00Ясно и безоблачно+23°C79 %724 мм2.1 м/с2 %
  • 28июля
    Воскресенье
    +19°
    +32°
    Ясно и безоблачно
    ВремяПогодаТемператураВлажностьДавлениеВетер, м/сВероятность осадков
    02:00Ясно и безоблачно+20°C84 %724 мм1.3 м/с2 %
    05:00Ясно и безоблачно+19°C88 %724 мм1.6 м/с2 %
    08:00Ясно и безоблачно+21°C83 %725 мм1.4 м/с2 %
    11:00Ясно и безоблачно+25°C61 %725 мм1.4 м/с3 %
    14:00Ясно и безоблачно+24°C46 %724 мм2.0 м/с19 %
    17:00Практически безоблачно+24°C43 %723 мм3.0 м/с42 %
    20:00Практически безоблачно+23°C65 %723 мм2.9 м/с33 %
    23:00Небольшая облачность+21°C74 %724 мм2.0 м/с14 %
Мы используем cookies
Соглашаюсь